createdAt,value
2022-08-25T00:00:10.306Z,49.53
2022-08-25T00:02:37.733Z,49.51
2022-08-25T00:05:05.674Z,49.32
2022-08-25T00:07:33.607Z,49.16
2022-08-25T00:10:00.321Z,49.39
2022-08-25T00:12:26.848Z,48.98
2022-08-25T00:14:53.359Z,49.02
2022-08-25T00:17:19.845Z,49.30
2022-08-25T00:19:46.335Z,49.75
2022-08-25T00:22:12.930Z,50.03
2022-08-25T00:24:39.567Z,50.09
2022-08-25T00:27:06.371Z,50.13
2022-08-25T00:29:34.017Z,50.06
2022-08-25T00:32:01.399Z,50.00
2022-08-25T00:34:34.448Z,49.90
2022-08-25T00:37:03.689Z,49.85
2022-08-25T00:39:30.489Z,50.12
2022-08-25T00:41:57.925Z,50.08
2022-08-25T00:44:28.559Z,50.07
2022-08-25T00:47:00.941Z,50.04
2022-08-25T00:49:54.147Z,50.51
2022-08-25T00:52:27.093Z,50.19
2022-08-25T00:55:08.140Z,50.57
2022-08-25T00:57:43.198Z,50.97
2022-08-25T01:00:22.542Z,51.10
2022-08-25T01:02:49.749Z,51.21
2022-08-25T01:05:19.223Z,51.23
2022-08-25T01:07:46.676Z,51.59
2022-08-25T01:10:13.739Z,51.59
2022-08-25T01:12:41.312Z,51.67
2022-08-25T01:15:11.763Z,51.84
2022-08-25T01:17:54.040Z,52.10
2022-08-25T01:20:29.470Z,52.04
2022-08-25T01:22:57.650Z,52.16
2022-08-25T01:25:57.118Z,52.89
2022-08-25T01:28:23.703Z,52.50
2022-08-25T01:30:50.574Z,52.16
2022-08-25T01:33:17.261Z,52.35
2022-08-25T01:35:44.095Z,52.52
2022-08-25T01:38:11.772Z,52.57
2022-08-25T01:40:40.171Z,53.00
2022-08-25T01:43:14.729Z,53.13
2022-08-25T01:45:47.609Z,53.14
2022-08-25T01:48:16.922Z,53.06
2022-08-25T01:50:44.086Z,53.13
2022-08-25T01:53:27.718Z,53.98
2022-08-25T01:56:05.563Z,53.96
2022-08-25T01:58:41.680Z,54.02
2022-08-25T02:01:15.727Z,54.11
2022-08-25T02:03:44.780Z,54.21
2022-08-25T02:06:17.836Z,54.46
2022-08-25T02:08:44.711Z,54.42
2022-08-25T02:11:14.213Z,54.30
2022-08-25T02:13:42.202Z,54.32
2022-08-25T02:16:14.716Z,54.43
2022-08-25T02:18:41.296Z,54.70
2022-08-25T02:21:07.778Z,55.12
2022-08-25T02:23:34.274Z,55.29
2022-08-25T02:26:00.771Z,55.71
2022-08-25T02:28:27.279Z,55.92
2022-08-25T02:30:58.563Z,56.20
2022-08-25T02:33:28.080Z,56.69
2022-08-25T02:35:59.284Z,56.80
2022-08-25T02:38:27.870Z,56.81
2022-08-25T02:40:56.987Z,56.65
2022-08-25T02:43:24.824Z,56.34
2022-08-25T02:45:53.254Z,56.78
2022-08-25T02:48:19.886Z,57.04
2022-08-25T02:50:48.779Z,56.96
2022-08-25T02:53:15.319Z,57.26
2022-08-25T02:55:41.833Z,57.05
2022-08-25T02:58:09.051Z,57.00
2022-08-25T03:00:36.871Z,56.85
2022-08-25T03:03:05.923Z,56.50
2022-08-25T03:05:33.695Z,56.65
2022-08-25T03:08:00.623Z,56.81
2022-08-25T03:10:27.306Z,57.27
2022-08-25T03:12:53.912Z,57.35
2022-08-25T03:15:20.737Z,57.78
2022-08-25T03:17:51.043Z,57.84
2022-08-25T03:20:19.486Z,57.71
2022-08-25T03:22:46.044Z,57.60
2022-08-25T03:25:31.727Z,57.68
2022-08-25T03:27:58.339Z,57.98
2022-08-25T03:30:26.121Z,57.75
2022-08-25T03:32:53.153Z,57.69
2022-08-25T03:35:19.911Z,57.60
2022-08-25T03:37:46.863Z,57.71
2022-08-25T03:40:17.438Z,57.46
2022-08-25T03:42:46.055Z,57.82
2022-08-25T03:45:16.430Z,57.98
2022-08-25T03:47:48.033Z,58.68
2022-08-25T03:50:17.720Z,58.99
2022-08-25T03:52:45.275Z,58.97
2022-08-25T03:55:14.808Z,59.26
2022-08-25T03:57:41.575Z,59.05
2022-08-25T04:00:12.135Z,59.27
2022-08-25T04:02:40.174Z,59.11
2022-08-25T04:05:08.674Z,59.59
2022-08-25T04:07:35.459Z,59.55
2022-08-25T04:10:02.145Z,59.77
2022-08-25T04:12:28.655Z,59.73
2022-08-25T04:14:55.890Z,60.20
2022-08-25T04:17:22.839Z,60.64
2022-08-25T04:19:50.009Z,60.47
2022-08-25T04:22:17.269Z,60.34
2022-08-25T04:24:43.866Z,60.45
2022-08-25T04:27:10.427Z,60.73
2022-08-25T04:29:36.935Z,60.70
2022-08-25T04:32:03.955Z,60.59
2022-08-25T04:34:31.637Z,60.68
2022-08-25T04:37:05.381Z,60.62
2022-08-25T04:39:32.325Z,60.61
2022-08-25T04:42:00.361Z,60.44
2022-08-25T04:44:27.203Z,60.97
2022-08-25T04:46:53.919Z,61.55
2022-08-25T04:49:20.466Z,61.58
2022-08-25T04:51:47.799Z,61.50
2022-08-25T04:54:17.080Z,61.42
2022-08-25T04:56:44.497Z,61.57
2022-08-25T04:59:15.695Z,61.05
2022-08-25T05:01:46.163Z,61.25
2022-08-25T05:04:28.534Z,61.16
2022-08-25T05:06:56.885Z,61.71
2022-08-25T05:09:23.667Z,61.54
2022-08-25T05:11:51.807Z,61.24
2022-08-25T05:14:21.619Z,61.86
2022-08-25T05:16:52.308Z,62.20
2022-08-25T05:19:19.386Z,62.07
2022-08-25T05:21:45.994Z,61.63
2022-08-25T05:24:12.511Z,61.99
2022-08-25T05:26:39.665Z,61.82
2022-08-25T05:29:06.895Z,61.75
2022-08-25T05:31:36.407Z,61.84
2022-08-25T05:34:08.018Z,61.53
2022-08-25T05:36:35.379Z,61.55
2022-08-25T05:39:02.643Z,61.54
2022-08-25T05:41:31.364Z,61.63
2022-08-25T05:43:58.176Z,61.44
2022-08-25T05:46:25.230Z,61.44
2022-08-25T05:48:52.138Z,61.74
2022-08-25T05:51:19.874Z,61.77
2022-08-25T05:53:50.092Z,61.77
2022-08-25T05:56:17.218Z,61.92
2022-08-25T05:58:44.632Z,61.78
2022-08-25T06:01:40.060Z,62.21
2022-08-25T06:04:10.055Z,62.24
2022-08-25T06:06:36.634Z,62.26
2022-08-25T06:09:05.136Z,62.31
2022-08-25T06:11:31.688Z,62.32
2022-08-25T06:13:58.263Z,62.06
2022-08-25T06:16:24.873Z,62.08
2022-08-25T06:18:51.411Z,62.15
2022-08-25T06:21:18.589Z,62.39
2022-08-25T06:23:45.189Z,62.25
2022-08-25T06:26:20.802Z,62.38
2022-08-25T06:28:50.771Z,62.03
2022-08-25T06:31:18.286Z,62.18
2022-08-25T06:33:45.355Z,62.20
2022-08-25T06:36:12.691Z,62.18
2022-08-25T06:38:39.270Z,62.58
2022-08-25T06:41:07.688Z,62.34
2022-08-25T06:43:34.963Z,62.12
2022-08-25T06:46:19.132Z,62.32
2022-08-25T06:48:45.822Z,61.97
2022-08-25T06:51:15.334Z,61.97
2022-08-25T06:53:44.591Z,61.93
2022-08-25T06:56:12.187Z,61.80
2022-08-25T06:58:39.758Z,61.73
2022-08-25T07:01:22.826Z,61.53
2022-08-25T07:03:59.699Z,61.37
2022-08-25T07:06:29.307Z,61.19
2022-08-25T07:08:55.832Z,61.06
2022-08-25T07:11:22.555Z,60.78
2022-08-25T07:13:50.759Z,60.66
2022-08-25T07:16:20.419Z,60.39
2022-08-25T07:18:48.855Z,60.17
2022-08-25T07:21:17.384Z,59.93
2022-08-25T07:23:44.620Z,60.10
2022-08-25T07:26:36.720Z,59.67
2022-08-25T07:29:31.937Z,59.38
2022-08-25T07:32:01.388Z,58.93
2022-08-25T07:34:52.619Z,58.82
2022-08-25T07:40:24.415Z,58.54
2022-08-25T07:42:55.076Z,58.28
2022-08-25T07:45:30.167Z,58.09
2022-08-25T07:48:06.027Z,58.13
2022-08-25T07:50:35.477Z,58.24
2022-08-25T07:53:02.198Z,58.04
2022-08-25T07:55:30.415Z,57.96
2022-08-25T07:57:57.922Z,58.02
2022-08-25T08:00:32.057Z,57.62
2022-08-25T08:03:00.831Z,57.04
2022-08-25T08:05:30.514Z,56.87
2022-08-25T08:07:57.787Z,56.79
2022-08-25T08:10:47.808Z,56.61
2022-08-25T08:13:16.478Z,56.31
2022-08-25T08:15:45.587Z,56.27
2022-08-25T08:18:12.160Z,55.67
2022-08-25T08:20:42.953Z,55.36
2022-08-25T08:23:11.398Z,54.97
2022-08-25T08:25:38.098Z,55.03
2022-08-25T08:28:04.647Z,55.10
2022-08-25T08:30:34.248Z,54.77
2022-08-25T08:33:11.322Z,54.73
2022-08-25T08:35:39.704Z,54.63
2022-08-25T08:38:14.552Z,54.33
2022-08-25T08:41:27.838Z,53.96
2022-08-25T08:44:10.769Z,54.01
2022-08-25T08:46:57.741Z,53.57
2022-08-25T08:50:07.701Z,53.29
2022-08-25T08:52:44.510Z,52.97
2022-08-25T08:55:32.182Z,52.33
2022-08-25T08:58:05.831Z,52.30
2022-08-25T09:00:40.422Z,52.25
2022-08-25T09:03:16.950Z,51.52
2022-08-25T09:05:52.703Z,51.09
2022-08-25T09:08:20.526Z,51.47
2022-08-25T09:11:22.685Z,50.93
2022-08-25T09:14:38.448Z,50.56
2022-08-25T09:17:41.200Z,49.58
2022-08-25T09:20:32.063Z,50.23
2022-08-25T09:23:29.968Z,49.96
2022-08-25T09:26:28.328Z,49.09
2022-08-25T09:29:06.322Z,48.19
2022-08-25T09:31:43.291Z,48.34
2022-08-25T09:34:20.692Z,47.44
2022-08-25T09:36:50.676Z,47.74
2022-08-25T09:39:17.915Z,47.83
2022-08-25T09:41:52.149Z,47.37
2022-08-25T09:44:31.396Z,46.72
2022-08-25T09:47:15.232Z,46.25
2022-08-25T09:49:56.278Z,46.46
2022-08-25T09:52:28.586Z,45.03
2022-08-25T09:55:00.182Z,45.08
2022-08-25T09:57:33.838Z,44.18
2022-08-25T10:00:34.118Z,41.81
2022-08-25T10:03:25.052Z,41.57
2022-08-25T10:06:13.349Z,41.52
2022-08-25T10:08:56.123Z,42.30
2022-08-25T10:11:48.284Z,41.84
2022-08-25T10:14:38.806Z,41.97
2022-08-25T10:17:16.873Z,42.70
2022-08-25T10:19:44.024Z,42.39
2022-08-25T10:22:24.296Z,41.70
2022-08-25T10:24:51.157Z,41.36
2022-08-25T10:27:28.700Z,41.43
2022-08-25T10:30:17.402Z,41.21
2022-08-25T10:33:17.604Z,41.44
2022-08-25T10:36:28.725Z,41.38
2022-08-25T10:39:01.602Z,41.31
2022-08-25T10:41:55.719Z,41.25
2022-08-25T10:45:12.374Z,40.63
2022-08-25T10:48:00.311Z,40.94
2022-08-25T10:50:59.008Z,39.99
2022-08-25T10:53:55.191Z,40.13
2022-08-25T10:56:28.819Z,40.88
2022-08-25T10:59:16.445Z,40.54
2022-08-25T11:01:56.811Z,39.81
2022-08-25T11:04:37.195Z,40.08
2022-08-25T11:07:16.581Z,39.81
2022-08-25T11:09:52.132Z,39.66
2022-08-25T11:12:34.854Z,39.85
2022-08-25T11:15:20.055Z,39.21
2022-08-25T11:17:57.021Z,38.88
2022-08-25T11:20:33.531Z,38.85
2022-08-25T11:23:41.620Z,37.99
2022-08-25T11:26:17.180Z,37.87
2022-08-25T11:29:21.756Z,37.30
2022-08-25T11:31:54.158Z,36.82
2022-08-25T11:34:22.571Z,37.42
2022-08-25T11:37:07.799Z,37.30
2022-08-25T11:39:51.915Z,37.87
2022-08-25T11:42:43.065Z,37.43
2022-08-25T11:45:39.862Z,37.39
2022-08-25T11:48:31.367Z,37.41
2022-08-25T11:51:33.757Z,36.99
2022-08-25T11:54:44.648Z,36.89
2022-08-25T11:57:25.699Z,36.10
2022-08-25T11:59:53.299Z,36.20
2022-08-25T12:02:51.133Z,36.04
2022-08-25T12:05:21.893Z,36.02
2022-08-25T12:07:48.839Z,37.00
2022-08-25T12:10:54.762Z,36.95
2022-08-25T12:13:45.631Z,36.32
2022-08-25T12:16:32.725Z,36.59
2022-08-25T12:19:47.410Z,36.89
2022-08-25T12:22:15.714Z,36.89
2022-08-25T12:24:47.190Z,37.03
2022-08-25T12:27:26.977Z,36.75
2022-08-25T12:30:16.129Z,37.13
2022-08-25T12:33:05.402Z,37.29
2022-08-25T12:35:37.499Z,37.04
2022-08-25T12:38:15.615Z,37.05
2022-08-25T12:40:42.958Z,36.54
2022-08-25T12:43:19.692Z,36.87
2022-08-25T12:45:48.291Z,36.75
2022-08-25T12:48:26.882Z,37.06
2022-08-25T12:51:05.187Z,37.53
2022-08-25T12:53:54.336Z,37.57
2022-08-25T12:56:28.854Z,37.93
2022-08-25T12:59:02.136Z,38.04
2022-08-25T13:01:59.953Z,37.42
2022-08-25T13:05:19.265Z,36.94
2022-08-25T13:08:24.805Z,37.33
2022-08-25T13:11:14.223Z,37.60
2022-08-25T13:14:17.915Z,37.32
2022-08-25T13:17:10.866Z,38.07
2022-08-25T13:19:38.291Z,37.45
2022-08-25T13:22:21.239Z,37.52
2022-08-25T13:24:50.784Z,37.44
2022-08-25T13:27:29.969Z,37.64
2022-08-25T13:29:59.769Z,37.48
2022-08-25T13:32:35.732Z,37.30
2022-08-25T13:35:21.013Z,37.00
2022-08-25T13:37:48.623Z,37.16
2022-08-25T13:40:33.598Z,37.06
2022-08-25T13:43:09.221Z,37.34
2022-08-25T13:45:45.917Z,37.28
2022-08-25T13:48:31.143Z,36.81
2022-08-25T13:51:31.384Z,37.29
2022-08-25T13:54:42.159Z,37.61
2022-08-25T13:57:22.231Z,37.67
2022-08-25T13:59:58.278Z,37.71
2022-08-25T14:02:49.941Z,36.66
2022-08-25T14:05:35.998Z,34.93
2022-08-25T14:08:16.236Z,35.96
2022-08-25T14:11:14.561Z,35.57
2022-08-25T14:13:45.267Z,35.57
2022-08-25T14:16:23.409Z,35.65
2022-08-25T14:18:58.824Z,36.03
2022-08-25T14:21:29.820Z,36.14
2022-08-25T14:23:57.450Z,36.18
2022-08-25T14:26:24.899Z,36.07
2022-08-25T14:28:53.402Z,35.79
2022-08-25T14:31:29.967Z,36.06
2022-08-25T14:34:13.485Z,35.76
2022-08-25T14:36:40.198Z,36.08
2022-08-25T14:39:08.913Z,35.39
2022-08-25T14:41:38.711Z,35.54
2022-08-25T14:44:05.799Z,36.04
2022-08-25T14:46:37.518Z,35.53
2022-08-25T14:49:09.956Z,35.27
2022-08-25T14:51:41.211Z,34.85
2022-08-25T14:54:14.856Z,35.26
2022-08-25T14:56:43.239Z,34.73
2022-08-25T14:59:10.019Z,35.08
2022-08-25T15:01:36.719Z,34.42
2022-08-25T15:04:13.006Z,34.27
2022-08-25T15:06:43.856Z,34.67
2022-08-25T15:09:16.277Z,34.79
2022-08-25T15:11:50.687Z,34.74
2022-08-25T15:14:28.569Z,35.24
2022-08-25T15:17:01.224Z,35.34
2022-08-25T15:19:28.706Z,35.43
2022-08-25T15:21:57.970Z,35.26
2022-08-25T15:24:28.562Z,35.47
2022-08-25T15:27:00.513Z,35.42
2022-08-25T15:29:31.595Z,35.23
2022-08-25T15:32:00.380Z,35.34
2022-08-25T15:34:28.022Z,35.26
2022-08-25T15:36:56.245Z,35.30
2022-08-25T15:39:22.750Z,35.75
2022-08-25T15:41:52.115Z,35.84
2022-08-25T15:44:19.137Z,36.01
2022-08-25T15:46:47.154Z,35.96
2022-08-25T15:49:23.633Z,36.62
2022-08-25T15:51:53.051Z,36.52
2022-08-25T15:54:22.914Z,35.96
2022-08-25T15:56:49.602Z,35.95
2022-08-25T15:59:16.641Z,35.89
2022-08-25T16:01:46.469Z,36.03
2022-08-25T16:04:14.321Z,36.28
2022-08-25T16:06:40.955Z,36.39
2022-08-25T16:09:08.182Z,36.26
2022-08-25T16:11:35.328Z,35.70
2022-08-25T16:14:05.979Z,35.53
2022-08-25T16:16:33.601Z,35.71
2022-08-25T16:19:01.362Z,35.34
2022-08-25T16:21:33.375Z,35.59
2022-08-25T16:24:07.749Z,35.55
2022-08-25T16:26:48.237Z,35.69
2022-08-25T16:29:15.583Z,35.42
2022-08-25T16:31:44.450Z,35.55
2022-08-25T16:34:11.222Z,36.21
2022-08-25T16:36:38.920Z,36.03
2022-08-25T16:39:09.848Z,36.09
2022-08-25T16:41:37.277Z,36.28
2022-08-25T16:44:11.086Z,36.15
2022-08-25T16:46:40.740Z,36.05
2022-08-25T16:49:10.310Z,36.00
2022-08-25T16:51:38.980Z,36.19
2022-08-25T16:54:27.756Z,36.06
2022-08-25T16:56:55.478Z,36.56
2022-08-25T16:59:23.547Z,36.58
2022-08-25T17:01:51.348Z,36.70
2022-08-25T17:04:18.091Z,36.30
2022-08-25T17:06:49.588Z,36.71
2022-08-25T17:09:23.968Z,36.55
2022-08-25T17:11:54.113Z,36.83
2022-08-25T17:14:21.732Z,36.80
2022-08-25T17:16:48.643Z,36.78
2022-08-25T17:19:18.978Z,36.69
2022-08-25T17:21:46.625Z,36.68
2022-08-25T17:24:14.194Z,36.61
2022-08-25T17:26:44.489Z,36.74
2022-08-25T17:29:11.863Z,37.20
2022-08-25T17:31:39.997Z,37.01
2022-08-25T17:34:16.168Z,37.29
2022-08-25T17:36:43.179Z,37.91
2022-08-25T17:39:14.066Z,37.84
2022-08-25T17:41:43.818Z,37.95
2022-08-25T17:44:10.990Z,37.97
2022-08-25T17:46:39.959Z,38.15
2022-08-25T17:49:11.771Z,38.50
2022-08-25T17:51:38.325Z,38.60
2022-08-25T17:54:05.163Z,38.51
2022-08-25T17:56:33.332Z,38.62
2022-08-25T17:58:59.881Z,38.78
2022-08-25T18:01:33.298Z,39.01
2022-08-25T18:04:00.930Z,39.16
2022-08-25T18:06:30.888Z,39.21
2022-08-25T18:08:59.895Z,39.38
2022-08-25T18:11:28.679Z,39.32
2022-08-25T18:13:56.083Z,39.59
2022-08-25T18:16:24.045Z,39.76
2022-08-25T18:18:53.554Z,39.81
2022-08-25T18:21:22.342Z,40.15
2022-08-25T18:23:49.604Z,40.06
2022-08-25T18:26:16.543Z,40.23
2022-08-25T18:28:43.896Z,40.41
2022-08-25T18:31:12.184Z,40.68
2022-08-25T18:33:44.372Z,40.66
2022-08-25T18:36:12.068Z,40.97
2022-08-25T18:38:58.394Z,40.83
2022-08-25T18:41:27.675Z,41.68
2022-08-25T18:43:54.387Z,41.37
2022-08-25T18:46:22.634Z,41.81
2022-08-25T18:48:52.757Z,42.04
2022-08-25T18:51:23.254Z,41.98
2022-08-25T18:53:54.470Z,42.45
2022-08-25T18:56:26.057Z,42.58
2022-08-25T18:58:52.709Z,42.56
2022-08-25T19:01:19.806Z,42.84
2022-08-25T19:03:46.625Z,42.91
2022-08-25T19:06:14.744Z,43.20
2022-08-25T19:08:42.179Z,43.24
2022-08-25T19:11:09.822Z,43.47
2022-08-25T19:13:37.519Z,43.79
2022-08-25T19:16:30.874Z,43.92
2022-08-25T19:18:57.591Z,44.09
2022-08-25T19:21:25.362Z,44.35
2022-08-25T19:23:52.997Z,44.37
2022-08-25T19:26:20.180Z,44.71
2022-08-25T19:28:49.417Z,44.61
2022-08-25T19:31:27.311Z,45.14
2022-08-25T19:33:56.001Z,45.10
2022-08-25T19:36:28.542Z,45.34
2022-08-25T19:38:58.548Z,45.85
2022-08-25T19:41:27.315Z,46.08
2022-08-25T19:43:57.267Z,46.08
2022-08-25T19:46:35.459Z,46.49
2022-08-25T19:49:27.165Z,47.25
2022-08-25T19:51:58.266Z,47.17
2022-08-25T19:54:33.204Z,47.75
2022-08-25T19:57:01.458Z,48.03
2022-08-25T19:59:40.648Z,48.03
2022-08-25T20:02:16.095Z,47.93
2022-08-25T20:04:52.161Z,48.39
2022-08-25T20:07:23.701Z,47.87
2022-08-25T20:09:52.989Z,47.62
2022-08-25T20:12:21.243Z,47.77
2022-08-25T20:14:50.320Z,47.87
2022-08-25T20:17:23.896Z,47.87
2022-08-25T20:19:55.717Z,48.08
2022-08-25T20:22:26.344Z,48.20
2022-08-25T20:24:57.968Z,48.37
2022-08-25T20:27:34.116Z,48.65
2022-08-25T20:30:02.627Z,48.78
2022-08-25T20:32:31.363Z,49.29
2022-08-25T20:34:57.990Z,49.61
2022-08-25T20:37:25.687Z,49.59
2022-08-25T20:39:52.700Z,49.57
2022-08-25T20:42:19.445Z,49.65
2022-08-25T20:44:46.979Z,49.97
2022-08-25T20:47:14.824Z,50.30
2022-08-25T20:49:45.163Z,50.22
2022-08-25T20:52:14.255Z,50.32
2022-08-25T20:54:43.959Z,50.47
2022-08-25T20:57:17.999Z,50.72
2022-08-25T20:59:44.610Z,51.26
2022-08-25T21:02:13.878Z,51.48
2022-08-25T21:04:48.907Z,51.85
2022-08-25T21:07:17.184Z,51.90
2022-08-25T21:09:43.725Z,52.01
2022-08-25T21:12:10.223Z,51.83
2022-08-25T21:14:41.300Z,52.06
2022-08-25T21:17:11.289Z,52.07
2022-08-25T21:19:39.831Z,51.89
2022-08-25T21:22:07.503Z,52.14
2022-08-25T21:24:34.486Z,52.27
2022-08-25T21:27:03.614Z,52.27
2022-08-25T21:29:32.549Z,52.26
2022-08-25T21:32:00.017Z,52.39
2022-08-25T21:34:28.262Z,52.71
2022-08-25T21:37:00.048Z,52.80
2022-08-25T21:39:29.461Z,52.82
2022-08-25T21:41:58.432Z,52.65
2022-08-25T21:44:26.681Z,52.86
2022-08-25T21:46:54.244Z,53.40
2022-08-25T21:49:22.067Z,53.40
2022-08-25T21:51:59.165Z,53.86
2022-08-25T21:54:28.751Z,53.58
2022-08-25T21:56:59.667Z,53.74
2022-08-25T21:59:36.182Z,53.57
2022-08-25T22:02:10.237Z,55.71
2022-08-25T22:04:39.341Z,54.51
2022-08-25T22:07:08.262Z,55.00
2022-08-25T22:09:35.883Z,55.65
2022-08-25T22:12:04.621Z,55.40
2022-08-25T22:14:32.332Z,55.56
2022-08-25T22:16:59.575Z,55.11
2022-08-25T22:19:27.145Z,55.03
2022-08-25T22:21:54.402Z,54.98
2022-08-25T22:24:21.543Z,55.33
2022-08-25T22:26:49.187Z,55.64
2022-08-25T22:29:23.257Z,55.85
2022-08-25T22:31:52.844Z,57.38
2022-08-25T22:34:19.594Z,56.11
2022-08-25T22:36:59.690Z,56.17
2022-08-25T22:39:26.925Z,55.87
2022-08-25T22:41:53.803Z,56.01
2022-08-25T22:44:20.410Z,56.25
2022-08-25T22:46:46.947Z,56.67
2022-08-25T22:49:14.023Z,56.74
2022-08-25T22:51:40.946Z,56.75
2022-08-25T22:54:09.674Z,56.99
2022-08-25T22:56:37.304Z,56.85
2022-08-25T22:59:10.953Z,56.92
2022-08-25T23:01:39.614Z,56.75
2022-08-25T23:04:07.047Z,56.70
2022-08-25T23:06:34.471Z,56.95
2022-08-25T23:09:03.738Z,57.28
2022-08-25T23:11:31.319Z,57.59
2022-08-25T23:14:05.517Z,58.11
2022-08-25T23:16:32.827Z,58.24
2022-08-25T23:19:00.382Z,58.41
2022-08-25T23:21:45.995Z,58.87
2022-08-25T23:24:29.502Z,59.13
2022-08-25T23:27:01.212Z,59.42
2022-08-25T23:29:30.935Z,59.42
2022-08-25T23:31:58.628Z,59.39
2022-08-25T23:34:26.497Z,59.54
2022-08-25T23:36:53.602Z,59.48
2022-08-25T23:39:21.639Z,59.20
2022-08-25T23:41:48.766Z,58.91
2022-08-25T23:44:17.307Z,58.66
2022-08-25T23:46:45.092Z,58.71
2022-08-25T23:49:12.358Z,58.91
2022-08-25T23:51:41.091Z,59.14
2022-08-25T23:54:11.601Z,59.18
2022-08-25T23:56:44.587Z,59.16
2022-08-25T23:59:18.191Z,59.36
